sensor_id;sensor_type;location;lat;lon;timestamp;P1;P2;P0
44933;PMS3003;30667;43.614;1.442;2022-12-07T00:00:27;62.33;50.67;34.67
44933;PMS3003;30667;43.614;1.442;2022-12-07T00:02:53;60.00;49.67;35.00
44933;PMS3003;30667;43.614;1.442;2022-12-07T00:05:18;55.00;46.67;31.00
44933;PMS3003;30667;43.614;1.442;2022-12-07T00:07:43;57.33;47.00;31.00
44933;PMS3003;30667;43.614;1.442;2022-12-07T00:10:09;53.00;45.00;31.00
44933;PMS3003;30667;43.614;1.442;2022-12-07T00:12:34;50.00;44.67;29.00
44933;PMS3003;30667;43.614;1.442;2022-12-07T00:15:00;50.00;42.00;29.00
44933;PMS3003;30667;43.614;1.442;2022-12-07T00:17:25;50.67;44.33;30.33
44933;PMS3003;30667;43.614;1.442;2022-12-07T00:19:51;55.33;46.33;31.33
44933;PMS3003;30667;43.614;1.442;2022-12-07T00:22:16;53.50;42.25;28.50
44933;PMS3003;30667;43.614;1.442;2022-12-07T00:24:41;58.00;47.33;31.00
44933;PMS3003;30667;43.614;1.442;2022-12-07T00:27:07;54.33;46.33;31.67
44933;PMS3003;30667;43.614;1.442;2022-12-07T00:29:32;56.00;46.00;31.00
44933;PMS3003;30667;43.614;1.442;2022-12-07T00:31:57;54.00;47.67;31.33
44933;PMS3003;30667;43.614;1.442;2022-12-07T00:34:23;56.33;46.00;31.00
44933;PMS3003;30667;43.614;1.442;2022-12-07T00:36:48;51.67;45.67;31.00
44933;PMS3003;30667;43.614;1.442;2022-12-07T00:39:14;57.33;47.33;31.67
44933;PMS3003;30667;43.614;1.442;2022-12-07T00:41:40;61.50;47.00;31.50
44933;PMS3003;30667;43.614;1.442;2022-12-07T00:44:05;58.00;47.33;31.00
44933;PMS3003;30667;43.614;1.442;2022-12-07T00:46:31;60.00;47.33;33.00
44933;PMS3003;30667;43.614;1.442;2022-12-07T00:48:56;61.67;50.00;32.67
44933;PMS3003;30667;43.614;1.442;2022-12-07T00:51:22;62.33;47.67;32.00
44933;PMS3003;30667;43.614;1.442;2022-12-07T00:53:49;66.00;49.75;31.25
44933;PMS3003;30667;43.614;1.442;2022-12-07T00:56:20;64.00;52.00;33.75
44933;PMS3003;30667;43.614;1.442;2022-12-07T00:58:51;64.50;51.00;34.50
44933;PMS3003;30667;43.614;1.442;2022-12-07T01:01:18;59.50;47.00;31.00
44933;PMS3003;30667;43.614;1.442;2022-12-07T01:03:43;50.00;43.33;29.67
44933;PMS3003;30667;43.614;1.442;2022-12-07T01:06:09;61.00;50.00;35.00
44933;PMS3003;30667;43.614;1.442;2022-12-07T01:08:40;65.00;52.50;34.75
44933;PMS3003;30667;43.614;1.442;2022-12-07T01:11:06;66.67;54.67;38.00
44933;PMS3003;30667;43.614;1.442;2022-12-07T01:13:34;71.00;57.25;36.75
44933;PMS3003;30667;43.614;1.442;2022-12-07T01:16:01;66.50;53.75;36.75
44933;PMS3003;30667;43.614;1.442;2022-12-07T01:18:29;65.00;53.75;35.75
44933;PMS3003;30667;43.614;1.442;2022-12-07T01:23:24;67.25;53.75;36.50
44933;PMS3003;30667;43.614;1.442;2022-12-07T01:25:59;72.67;55.67;36.00
44933;PMS3003;30667;43.614;1.442;2022-12-07T01:28:26;72.00;57.00;37.75
44933;PMS3003;30667;43.614;1.442;2022-12-07T01:30:56;71.00;56.50;37.50
44933;PMS3003;30667;43.614;1.442;2022-12-07T01:33:23;66.75;55.50;36.75
44933;PMS3003;30667;43.614;1.442;2022-12-07T01:35:48;72.33;55.33;38.00
44933;PMS3003;30667;43.614;1.442;2022-12-07T01:38:14;68.33;55.00;36.00
44933;PMS3003;30667;43.614;1.442;2022-12-07T01:40:39;66.33;53.00;36.00
44933;PMS3003;30667;43.614;1.442;2022-12-07T01:43:13;69.00;54.00;36.00
44933;PMS3003;30667;43.614;1.442;2022-12-07T01:45:42;69.50;55.50;37.75
44933;PMS3003;30667;43.614;1.442;2022-12-07T01:48:08;68.67;56.00;36.67
44933;PMS3003;30667;43.614;1.442;2022-12-07T01:50:36;68.25;54.25;37.25
44933;PMS3003;30667;43.614;1.442;2022-12-07T01:53:03;69.25;54.75;37.50
44933;PMS3003;30667;43.614;1.442;2022-12-07T01:55:31;70.00;55.25;37.75
44933;PMS3003;30667;43.614;1.442;2022-12-07T01:57:59;70.50;55.50;37.75
44933;PMS3003;30667;43.614;1.442;2022-12-07T02:00:24;77.00;59.33;39.67
44933;PMS3003;30667;43.614;1.442;2022-12-07T02:05:28;81.25;60.00;40.00
44933;PMS3003;30667;43.614;1.442;2022-12-07T02:07:55;77.33;61.00;41.67
44933;PMS3003;30667;43.614;1.442;2022-12-07T02:10:25;75.75;59.00;40.25
44933;PMS3003;30667;43.614;1.442;2022-12-07T02:12:54;77.00;60.75;40.75
44933;PMS3003;30667;43.614;1.442;2022-12-07T02:15:29;75.00;58.25;39.25
44933;PMS3003;30667;43.614;1.442;2022-12-07T02:18:42;71.25;57.50;38.50
44933;PMS3003;30667;43.614;1.442;2022-12-07T02:22:08;73.00;58.50;39.25
44933;PMS3003;30667;43.614;1.442;2022-12-07T02:26:55;73.75;58.25;39.00
44933;PMS3003;30667;43.614;1.442;2022-12-07T02:29:45;73.50;57.75;38.25
44933;PMS3003;30667;43.614;1.442;2022-12-07T02:35:07;71.00;55.75;37.75
44933;PMS3003;30667;43.614;1.442;2022-12-07T02:37:47;71.00;56.25;37.50
44933;PMS3003;30667;43.614;1.442;2022-12-07T02:41:04;70.50;55.50;36.75
44933;PMS3003;30667;43.614;1.442;2022-12-07T02:43:28;65.25;53.50;37.25
44933;PMS3003;30667;43.614;1.442;2022-12-07T02:46:04;70.00;55.00;35.00
44933;PMS3003;30667;43.614;1.442;2022-12-07T02:48:33;67.50;55.25;36.75
44933;PMS3003;30667;43.614;1.442;2022-12-07T02:51:00;64.50;53.00;36.75
44933;PMS3003;30667;43.614;1.442;2022-12-07T02:53:32;62.00;50.33;34.67
44933;PMS3003;30667;43.614;1.442;2022-12-07T02:56:11;64.25;49.25;35.00
44933;PMS3003;30667;43.614;1.442;2022-12-07T03:01:15;63.00;51.33;35.00
44933;PMS3003;30667;43.614;1.442;2022-12-07T03:04:19;61.00;49.25;32.25
44933;PMS3003;30667;43.614;1.442;2022-12-07T03:07:06;68.25;52.75;33.25
44933;PMS3003;30667;43.614;1.442;2022-12-07T03:09:45;59.25;49.50;33.00
44933;PMS3003;30667;43.614;1.442;2022-12-07T03:15:26;59.25;46.00;32.75
44933;PMS3003;30667;43.614;1.442;2022-12-07T03:18:16;57.75;48.25;33.50
44933;PMS3003;30667;43.614;1.442;2022-12-07T03:20:46;59.75;50.00;32.75
44933;PMS3003;30667;43.614;1.442;2022-12-07T03:23:17;63.00;52.00;34.00
44933;PMS3003;30667;43.614;1.442;2022-12-07T03:25:45;59.25;48.25;33.50
44933;PMS3003;30667;43.614;1.442;2022-12-07T03:28:15;64.75;52.00;35.00
44933;PMS3003;30667;43.614;1.442;2022-12-07T03:30:49;63.75;50.25;34.50
44933;PMS3003;30667;43.614;1.442;2022-12-07T03:33:56;61.50;51.50;34.00
44933;PMS3003;30667;43.614;1.442;2022-12-07T03:36:22;66.00;52.25;35.50
44933;PMS3003;30667;43.614;1.442;2022-12-07T03:38:55;63.00;50.75;34.25
44933;PMS3003;30667;43.614;1.442;2022-12-07T03:41:31;63.50;52.75;35.25
44933;PMS3003;30667;43.614;1.442;2022-12-07T03:43:59;71.25;53.50;35.25
44933;PMS3003;30667;43.614;1.442;2022-12-07T03:51:40;65.50;52.25;35.75
44933;PMS3003;30667;43.614;1.442;2022-12-07T03:54:24;76.25;56.50;37.75
44933;PMS3003;30667;43.614;1.442;2022-12-07T03:56:56;73.75;59.25;40.00
44933;PMS3003;30667;43.614;1.442;2022-12-07T03:59:23;75.00;57.25;38.75
44933;PMS3003;30667;43.614;1.442;2022-12-07T04:01:54;73.25;59.25;40.00
44933;PMS3003;30667;43.614;1.442;2022-12-07T04:04:22;77.75;60.75;41.25
44933;PMS3003;30667;43.614;1.442;2022-12-07T04:06:49;78.25;60.50;41.25
44933;PMS3003;30667;43.614;1.442;2022-12-07T04:09:16;80.75;61.25;40.75
44933;PMS3003;30667;43.614;1.442;2022-12-07T04:11:42;76.50;61.25;39.25
44933;PMS3003;30667;43.614;1.442;2022-12-07T04:14:07;74.67;59.33;39.33
44933;PMS3003;30667;43.614;1.442;2022-12-07T04:16:46;74.75;60.00;39.50
44933;PMS3003;30667;43.614;1.442;2022-12-07T04:19:22;74.50;59.50;40.00
44933;PMS3003;30667;43.614;1.442;2022-12-07T04:21:50;81.50;62.75;41.00
44933;PMS3003;30667;43.614;1.442;2022-12-07T04:24:16;79.67;60.00;41.00
44933;PMS3003;30667;43.614;1.442;2022-12-07T04:26:42;78.00;62.00;41.00
44933;PMS3003;30667;43.614;1.442;2022-12-07T04:29:08;76.25;60.75;40.25
44933;PMS3003;30667;43.614;1.442;2022-12-07T04:31:34;78.50;60.75;41.25
44933;PMS3003;30667;43.614;1.442;2022-12-07T04:34:00;76.50;60.75;41.00
44933;PMS3003;30667;43.614;1.442;2022-12-07T04:36:25;78.33;60.33;39.67
44933;PMS3003;30667;43.614;1.442;2022-12-07T04:38:52;80.33;63.00;41.67
44933;PMS3003;30667;43.614;1.442;2022-12-07T04:41:19;77.00;60.50;39.75
44933;PMS3003;30667;43.614;1.442;2022-12-07T04:43:51;75.75;60.25;41.00
44933;PMS3003;30667;43.614;1.442;2022-12-07T04:46:21;79.75;62.50;41.00
44933;PMS3003;30667;43.614;1.442;2022-12-07T04:48:48;79.50;60.75;41.25
44933;PMS3003;30667;43.614;1.442;2022-12-07T04:51:14;76.67;62.00;40.33
44933;PMS3003;30667;43.614;1.442;2022-12-07T04:53:43;75.00;59.50;38.75
44933;PMS3003;30667;43.614;1.442;2022-12-07T04:56:08;75.67;61.00;40.00
44933;PMS3003;30667;43.614;1.442;2022-12-07T04:58:34;76.00;60.00;40.00
44933;PMS3003;30667;43.614;1.442;2022-12-07T05:00:59;76.00;60.00;40.33
44933;PMS3003;30667;43.614;1.442;2022-12-07T05:03:24;75.33;60.33;40.00
44933;PMS3003;30667;43.614;1.442;2022-12-07T05:05:50;78.33;61.00;41.67
44933;PMS3003;30667;43.614;1.442;2022-12-07T05:08:15;73.00;60.00;39.00
44933;PMS3003;30667;43.614;1.442;2022-12-07T05:10:40;79.33;61.33;41.00
44933;PMS3003;30667;43.614;1.442;2022-12-07T05:13:06;74.00;60.00;39.67
44933;PMS3003;30667;43.614;1.442;2022-12-07T05:15:31;74.67;58.67;40.33
44933;PMS3003;30667;43.614;1.442;2022-12-07T05:17:56;73.67;60.00;39.33
44933;PMS3003;30667;43.614;1.442;2022-12-07T05:20:22;78.00;60.00;40.00
44933;PMS3003;30667;43.614;1.442;2022-12-07T05:22:48;70.67;57.33;38.67
44933;PMS3003;30667;43.614;1.442;2022-12-07T05:25:13;74.67;60.00;39.00
44933;PMS3003;30667;43.614;1.442;2022-12-07T05:27:38;74.33;59.00;40.00
44933;PMS3003;30667;43.614;1.442;2022-12-07T05:30:04;74.00;60.00;40.33
44933;PMS3003;30667;43.614;1.442;2022-12-07T05:32:30;76.50;61.50;39.75
44933;PMS3003;30667;43.614;1.442;2022-12-07T05:34:56;80.67;60.67;41.33
44933;PMS3003;30667;43.614;1.442;2022-12-07T05:37:21;78.00;60.00;40.67
44933;PMS3003;30667;43.614;1.442;2022-12-07T05:39:47;79.33;61.67;40.67
44933;PMS3003;30667;43.614;1.442;2022-12-07T05:42:12;80.33;62.33;42.00
44933;PMS3003;30667;43.614;1.442;2022-12-07T05:44:41;78.67;62.00;41.67
44933;PMS3003;30667;43.614;1.442;2022-12-07T05:47:08;78.00;62.75;41.00
44933;PMS3003;30667;43.614;1.442;2022-12-07T05:49:34;82.00;63.25;41.50
44933;PMS3003;30667;43.614;1.442;2022-12-07T05:52:00;79.67;63.00;42.00
44933;PMS3003;30667;43.614;1.442;2022-12-07T05:54:25;75.67;61.00;40.00
44933;PMS3003;30667;43.614;1.442;2022-12-07T05:56:51;76.00;61.67;42.00
44933;PMS3003;30667;43.614;1.442;2022-12-07T05:59:16;76.33;61.00;41.67
44933;PMS3003;30667;43.614;1.442;2022-12-07T06:04:20;81.25;62.50;40.75
44933;PMS3003;30667;43.614;1.442;2022-12-07T06:06:47;75.50;59.75;41.00
44933;PMS3003;30667;43.614;1.442;2022-12-07T06:09:12;76.00;60.00;41.00
44933;PMS3003;30667;43.614;1.442;2022-12-07T06:11:40;76.25;59.75;40.50
44933;PMS3003;30667;43.614;1.442;2022-12-07T06:14:24;78.50;63.00;41.25
44933;PMS3003;30667;43.614;1.442;2022-12-07T06:16:50;74.25;60.00;40.75
44933;PMS3003;30667;43.614;1.442;2022-12-07T06:19:15;79.33;61.00;38.67
44933;PMS3003;30667;43.614;1.442;2022-12-07T06:21:41;78.00;60.00;40.67
44933;PMS3003;30667;43.614;1.442;2022-12-07T06:24:07;69.67;56.33;38.00
44933;PMS3003;30667;43.614;1.442;2022-12-07T06:26:34;76.75;59.50;39.75
44933;PMS3003;30667;43.614;1.442;2022-12-07T06:28:59;77.00;58.67;39.33
44933;PMS3003;30667;43.614;1.442;2022-12-07T06:31:24;71.67;59.33;38.67
44933;PMS3003;30667;43.614;1.442;2022-12-07T06:33:50;75.67;59.33;38.67
44933;PMS3003;30667;43.614;1.442;2022-12-07T06:36:16;73.00;58.00;39.00
44933;PMS3003;30667;43.614;1.442;2022-12-07T06:38:41;73.00;58.33;38.33
44933;PMS3003;30667;43.614;1.442;2022-12-07T06:41:07;74.67;59.67;39.33
44933;PMS3003;30667;43.614;1.442;2022-12-07T06:43:33;71.50;57.25;38.75
44933;PMS3003;30667;43.614;1.442;2022-12-07T06:45:58;73.67;60.33;39.00
44933;PMS3003;30667;43.614;1.442;2022-12-07T06:48:24;81.00;59.67;39.00
44933;PMS3003;30667;43.614;1.442;2022-12-07T06:50:49;76.00;57.33;37.67
44933;PMS3003;30667;43.614;1.442;2022-12-07T06:53:16;75.33;56.67;38.00
44933;PMS3003;30667;43.614;1.442;2022-12-07T06:55:42;73.00;56.75;38.00
44933;PMS3003;30667;43.614;1.442;2022-12-07T06:58:07;66.33;55.33;38.00
44933;PMS3003;30667;43.614;1.442;2022-12-07T07:00:33;68.67;57.00;38.00
44933;PMS3003;30667;43.614;1.442;2022-12-07T07:03:00;70.25;55.75;37.75
44933;PMS3003;30667;43.614;1.442;2022-12-07T07:05:25;75.00;58.00;38.00
44933;PMS3003;30667;43.614;1.442;2022-12-07T07:07:51;76.00;59.00;39.00
44933;PMS3003;30667;43.614;1.442;2022-12-07T07:10:16;79.67;61.33;41.00
44933;PMS3003;30667;43.614;1.442;2022-12-07T07:12:42;75.67;59.67;39.67
44933;PMS3003;30667;43.614;1.442;2022-12-07T07:15:08;83.67;62.00;41.67
44933;PMS3003;30667;43.614;1.442;2022-12-07T07:17:34;81.00;61.75;41.25
44933;PMS3003;30667;43.614;1.442;2022-12-07T07:20:00;76.33;60.00;40.00
44933;PMS3003;30667;43.614;1.442;2022-12-07T07:22:25;78.33;61.00;39.33
44933;PMS3003;30667;43.614;1.442;2022-12-07T07:24:50;76.33;59.33;40.67
44933;PMS3003;30667;43.614;1.442;2022-12-07T07:27:16;75.33;60.00;39.67
44933;PMS3003;30667;43.614;1.442;2022-12-07T07:29:41;77.67;60.33;39.33
44933;PMS3003;30667;43.614;1.442;2022-12-07T07:32:07;75.00;59.67;40.00
44933;PMS3003;30667;43.614;1.442;2022-12-07T07:34:32;79.67;61.67;40.33
44933;PMS3003;30667;43.614;1.442;2022-12-07T07:36:58;76.00;59.75;40.75
44933;PMS3003;30667;43.614;1.442;2022-12-07T07:39:23;74.67;60.00;42.00
44933;PMS3003;30667;43.614;1.442;2022-12-07T07:41:49;79.00;61.00;40.00
44933;PMS3003;30667;43.614;1.442;2022-12-07T07:44:14;78.67;62.67;41.67
44933;PMS3003;30667;43.614;1.442;2022-12-07T07:46:40;77.67;61.00;42.00
44933;PMS3003;30667;43.614;1.442;2022-12-07T07:49:05;81.33;62.33;43.00
44933;PMS3003;30667;43.614;1.442;2022-12-07T07:51:30;76.33;61.33;42.00
44933;PMS3003;30667;43.614;1.442;2022-12-07T07:53:56;78.33;62.00;41.67
44933;PMS3003;30667;43.614;1.442;2022-12-07T07:56:21;83.67;64.00;42.00
44933;PMS3003;30667;43.614;1.442;2022-12-07T07:58:47;82.67;61.67;42.00
44933;PMS3003;30667;43.614;1.442;2022-12-07T08:01:12;83.25;64.75;42.50
44933;PMS3003;30667;43.614;1.442;2022-12-07T08:03:38;83.75;64.00;42.25
44933;PMS3003;30667;43.614;1.442;2022-12-07T08:06:04;83.33;64.00;42.00
44933;PMS3003;30667;43.614;1.442;2022-12-07T08:08:29;82.40;64.00;42.40
44933;PMS3003;30667;43.614;1.442;2022-12-07T08:10:55;83.25;65.00;43.25
44933;PMS3003;30667;43.614;1.442;2022-12-07T08:13:21;83.00;63.67;43.00
44933;PMS3003;30667;43.614;1.442;2022-12-07T08:15:47;87.50;64.75;43.00
44933;PMS3003;30667;43.614;1.442;2022-12-07T08:18:13;81.75;62.25;43.25
44933;PMS3003;30667;43.614;1.442;2022-12-07T08:20:40;84.00;66.40;44.20
44933;PMS3003;30667;43.614;1.442;2022-12-07T08:23:06;78.00;62.60;42.40
44933;PMS3003;30667;43.614;1.442;2022-12-07T08:25:32;85.60;65.40;43.00
44933;PMS3003;30667;43.614;1.442;2022-12-07T08:27:58;81.33;61.67;41.67
44933;PMS3003;30667;43.614;1.442;2022-12-07T08:30:25;84.80;63.00;42.80
44933;PMS3003;30667;43.614;1.442;2022-12-07T08:32:51;75.50;61.00;41.75
44933;PMS3003;30667;43.614;1.442;2022-12-07T08:35:17;78.00;61.67;42.33
44933;PMS3003;30667;43.614;1.442;2022-12-07T08:37:42;70.33;55.00;37.00
44933;PMS3003;30667;43.614;1.442;2022-12-07T08:40:08;81.75;63.00;42.00
44933;PMS3003;30667;43.614;1.442;2022-12-07T08:42:35;77.50;61.00;41.00
44933;PMS3003;30667;43.614;1.442;2022-12-07T08:45:09;79.25;62.25;41.00
44933;PMS3003;30667;43.614;1.442;2022-12-07T08:47:38;73.25;58.25;39.00
44933;PMS3003;30667;43.614;1.442;2022-12-07T08:50:09;74.50;58.75;39.50
44933;PMS3003;30667;43.614;1.442;2022-12-07T08:52:37;72.25;57.00;37.50
44933;PMS3003;30667;43.614;1.442;2022-12-07T08:55:03;74.75;58.75;38.25
44933;PMS3003;30667;43.614;1.442;2022-12-07T08:57:30;74.25;59.00;39.50
44933;PMS3003;30667;43.614;1.442;2022-12-07T08:59:58;70.25;56.75;37.75
44933;PMS3003;30667;43.614;1.442;2022-12-07T09:02:24;75.00;58.33;37.33
44933;PMS3003;30667;43.614;1.442;2022-12-07T09:04:49;67.00;54.00;37.00
44933;PMS3003;30667;43.614;1.442;2022-12-07T09:07:15;67.33;53.00;36.33
44933;PMS3003;30667;43.614;1.442;2022-12-07T09:09:40;62.67;52.00;35.00
44933;PMS3003;30667;43.614;1.442;2022-12-07T09:12:06;62.25;51.25;35.00
44933;PMS3003;30667;43.614;1.442;2022-12-07T09:14:32;65.00;52.33;36.00
44933;PMS3003;30667;43.614;1.442;2022-12-07T09:17:11;62.33;48.67;35.00
44933;PMS3003;30667;43.614;1.442;2022-12-07T09:19:37;60.50;49.50;34.50
44933;PMS3003;30667;43.614;1.442;2022-12-07T09:22:04;59.00;46.75;31.00
44933;PMS3003;30667;43.614;1.442;2022-12-07T09:24:30;56.00;47.25;30.75
44933;PMS3003;30667;43.614;1.442;2022-12-07T09:26:56;51.50;44.25;29.75
44933;PMS3003;30667;43.614;1.442;2022-12-07T09:29:22;60.25;48.75;31.75
44933;PMS3003;30667;43.614;1.442;2022-12-07T09:31:47;59.67;46.67;30.00
44933;PMS3003;30667;43.614;1.442;2022-12-07T09:34:13;59.00;45.00;30.00
44933;PMS3003;30667;43.614;1.442;2022-12-07T09:36:39;53.00;43.75;29.00
44933;PMS3003;30667;43.614;1.442;2022-12-07T09:39:04;54.33;45.67;30.00
44933;PMS3003;30667;43.614;1.442;2022-12-07T09:41:30;55.00;45.75;30.00
44933;PMS3003;30667;43.614;1.442;2022-12-07T09:44:04;60.25;47.50;31.50
44933;PMS3003;30667;43.614;1.442;2022-12-07T09:46:34;54.75;45.50;29.75
44933;PMS3003;30667;43.614;1.442;2022-12-07T09:49:02;55.75;44.00;30.25
44933;PMS3003;30667;43.614;1.442;2022-12-07T09:51:28;45.75;41.50;26.75
44933;PMS3003;30667;43.614;1.442;2022-12-07T09:53:54;49.67;44.67;28.67
44933;PMS3003;30667;43.614;1.442;2022-12-07T09:56:22;52.00;44.00;29.50
44933;PMS3003;30667;43.614;1.442;2022-12-07T09:58:48;54.00;43.75;30.00
44933;PMS3003;30667;43.614;1.442;2022-12-07T10:01:19;52.00;43.75;28.75
44933;PMS3003;30667;43.614;1.442;2022-12-07T10:03:50;58.50;46.75;30.50
44933;PMS3003;30667;43.614;1.442;2022-12-07T10:06:18;55.50;46.00;30.00
44933;PMS3003;30667;43.614;1.442;2022-12-07T10:08:43;55.67;46.00;32.00
44933;PMS3003;30667;43.614;1.442;2022-12-07T10:11:09;61.67;49.33;32.00
44933;PMS3003;30667;43.614;1.442;2022-12-07T10:13:37;59.50;49.75;33.75
44933;PMS3003;30667;43.614;1.442;2022-12-07T10:16:05;60.00;49.25;32.00
44933;PMS3003;30667;43.614;1.442;2022-12-07T10:18:32;62.25;49.00;34.00
44933;PMS3003;30667;43.614;1.442;2022-12-07T10:23:35;47.80;42.40;29.60
44933;PMS3003;30667;43.614;1.442;2022-12-07T10:26:26;56.75;45.50;30.25
44933;PMS3003;30667;43.614;1.442;2022-12-07T10:28:55;60.00;48.00;31.75
44933;PMS3003;30667;43.614;1.442;2022-12-07T10:31:24;52.75;43.25;28.50
44933;PMS3003;30667;43.614;1.442;2022-12-07T10:33:59;48.33;43.67;29.33
44933;PMS3003;30667;43.614;1.442;2022-12-07T10:36:34;52.00;46.25;30.50
44933;PMS3003;30667;43.614;1.442;2022-12-07T10:41:53;53.20;44.40;29.40
44933;PMS3003;30667;43.614;1.442;2022-12-07T10:44:24;48.00;42.75;30.00
44933;PMS3003;30667;43.614;1.442;2022-12-07T10:55:56;46.20;40.20;26.00
44933;PMS3003;30667;43.614;1.442;2022-12-07T10:58:57;40.40;36.00;24.60
44933;PMS3003;30667;43.614;1.442;2022-12-07T11:01:48;37.00;35.00;22.60
44933;PMS3003;30667;43.614;1.442;2022-12-07T11:07:14;39.80;34.20;22.00
44933;PMS3003;30667;43.614;1.442;2022-12-07T11:10:19;34.40;33.80;21.40
44933;PMS3003;30667;43.614;1.442;2022-12-07T11:13:02;34.20;30.40;19.60
44933;PMS3003;30667;43.614;1.442;2022-12-07T11:21:48;39.60;35.00;23.60
44933;PMS3003;30667;43.614;1.442;2022-12-07T11:27:37;44.00;38.40;23.60
44933;PMS3003;30667;43.614;1.442;2022-12-07T11:30:18;30.80;28.80;21.00
44933;PMS3003;30667;43.614;1.442;2022-12-07T11:38:14;41.20;37.20;23.00
44933;PMS3003;30667;43.614;1.442;2022-12-07T11:40:45;34.80;32.60;22.20
44933;PMS3003;30667;43.614;1.442;2022-12-07T11:43:20;34.40;33.00;23.00
44933;PMS3003;30667;43.614;1.442;2022-12-07T11:46:02;28.00;26.60;19.00
44933;PMS3003;30667;43.614;1.442;2022-12-07T11:48:33;29.40;26.80;18.00
44933;PMS3003;30667;43.614;1.442;2022-12-07T11:51:06;22.80;22.00;14.00
44933;PMS3003;30667;43.614;1.442;2022-12-07T11:56:19;30.40;26.00;18.00
44933;PMS3003;30667;43.614;1.442;2022-12-07T12:03:49;19.20;17.60;10.60
44933;PMS3003;30667;43.614;1.442;2022-12-07T12:06:17;18.40;18.40;11.40
44933;PMS3003;30667;43.614;1.442;2022-12-07T12:20:23;23.20;22.20;14.00
44933;PMS3003;30667;43.614;1.442;2022-12-07T12:25:41;28.60;22.00;16.20
44933;PMS3003;30667;43.614;1.442;2022-12-07T12:30:49;24.20;22.00;15.60
44933;PMS3003;30667;43.614;1.442;2022-12-07T12:33:42;25.60;22.00;15.00
44933;PMS3003;30667;43.614;1.442;2022-12-07T12:39:09;23.40;22.20;14.40
44933;PMS3003;30667;43.614;1.442;2022-12-07T12:46:57;26.00;23.40;15.20
44933;PMS3003;30667;43.614;1.442;2022-12-07T12:49:34;26.60;23.20;15.20
44933;PMS3003;30667;43.614;1.442;2022-12-07T12:54:39;23.40;21.60;14.00
44933;PMS3003;30667;43.614;1.442;2022-12-07T12:57:29;30.80;25.80;16.20
44933;PMS3003;30667;43.614;1.442;2022-12-07T12:59:57;28.80;23.40;14.60
44933;PMS3003;30667;43.614;1.442;2022-12-07T13:02:34;29.80;27.00;18.00
44933;PMS3003;30667;43.614;1.442;2022-12-07T13:10:54;23.60;19.60;11.40
44933;PMS3003;30667;43.614;1.442;2022-12-07T13:15:40;27.00;24.75;15.25
44933;PMS3003;30667;43.614;1.442;2022-12-07T13:20:58;22.00;22.00;14.20
44933;PMS3003;30667;43.614;1.442;2022-12-07T13:26:06;20.40;19.60;12.60
44933;PMS3003;30667;43.614;1.442;2022-12-07T13:28:39;18.00;16.80;10.00
44933;PMS3003;30667;43.614;1.442;2022-12-07T13:34:02;18.60;16.80;9.40
44933;PMS3003;30667;43.614;1.442;2022-12-07T13:36:30;16.20;15.00;10.00
44933;PMS3003;30667;43.614;1.442;2022-12-07T13:39:11;18.40;15.40;9.60
44933;PMS3003;30667;43.614;1.442;2022-12-07T13:41:45;18.60;17.20;9.20
44933;PMS3003;30667;43.614;1.442;2022-12-07T13:44:16;17.60;17.20;11.00
44933;PMS3003;30667;43.614;1.442;2022-12-07T13:46:51;17.80;15.80;10.40
44933;PMS3003;30667;43.614;1.442;2022-12-07T13:49:22;17.40;16.40;11.00
44933;PMS3003;30667;43.614;1.442;2022-12-07T13:51:53;17.60;15.20;10.40
44933;PMS3003;30667;43.614;1.442;2022-12-07T13:54:20;18.40;18.40;10.60
44933;PMS3003;30667;43.614;1.442;2022-12-07T13:56:52;18.40;18.40;10.80
44933;PMS3003;30667;43.614;1.442;2022-12-07T13:59:21;25.40;19.00;11.60
44933;PMS3003;30667;43.614;1.442;2022-12-07T14:01:50;18.60;16.20;10.60
44933;PMS3003;30667;43.614;1.442;2022-12-07T14:04:35;18.40;16.60;11.00
44933;PMS3003;30667;43.614;1.442;2022-12-07T14:12:57;26.40;22.60;15.00
44933;PMS3003;30667;43.614;1.442;2022-12-07T14:15:26;22.00;21.40;14.40
44933;PMS3003;30667;43.614;1.442;2022-12-07T14:17:54;25.60;23.40;16.20
44933;PMS3003;30667;43.614;1.442;2022-12-07T14:20:36;25.60;22.60;14.40
44933;PMS3003;30667;43.614;1.442;2022-12-07T14:23:04;30.80;26.40;16.40
44933;PMS3003;30667;43.614;1.442;2022-12-07T14:25:46;26.00;23.60;16.60
44933;PMS3003;30667;43.614;1.442;2022-12-07T14:30:52;26.40;25.60;16.60
44933;PMS3003;30667;43.614;1.442;2022-12-07T14:33:18;23.25;22.25;15.00
44933;PMS3003;30667;43.614;1.442;2022-12-07T14:35:44;23.60;23.40;15.40
44933;PMS3003;30667;43.614;1.442;2022-12-07T14:38:09;27.50;25.00;15.25
44933;PMS3003;30667;43.614;1.442;2022-12-07T14:40:36;25.80;25.00;17.60
44933;PMS3003;30667;43.614;1.442;2022-12-07T14:43:12;29.00;28.20;16.60
44933;PMS3003;30667;43.614;1.442;2022-12-07T14:45:40;26.80;24.00;16.00
44933;PMS3003;30667;43.614;1.442;2022-12-07T14:48:06;24.75;23.50;15.25
44933;PMS3003;30667;43.614;1.442;2022-12-07T14:50:37;25.40;23.60;15.80
44933;PMS3003;30667;43.614;1.442;2022-12-07T14:53:15;24.20;23.20;15.40
44933;PMS3003;30667;43.614;1.442;2022-12-07T14:55:43;23.40;21.80;13.20
44933;PMS3003;30667;43.614;1.442;2022-12-07T14:58:18;20.00;19.75;13.75
44933;PMS3003;30667;43.614;1.442;2022-12-07T15:00:43;21.20;20.20;12.60
44933;PMS3003;30667;43.614;1.442;2022-12-07T15:03:09;24.20;20.20;12.20
44933;PMS3003;30667;43.614;1.442;2022-12-07T15:05:35;22.25;19.25;11.25
44933;PMS3003;30667;43.614;1.442;2022-12-07T15:08:02;23.00;21.80;14.00
44933;PMS3003;30667;43.614;1.442;2022-12-07T15:10:29;22.20;21.00;14.20
44933;PMS3003;30667;43.614;1.442;2022-12-07T15:12:58;19.60;19.60;13.80
44933;PMS3003;30667;43.614;1.442;2022-12-07T15:15:46;18.60;16.00;10.80
44933;PMS3003;30667;43.614;1.442;2022-12-07T15:18:13;21.80;20.20;13.80
44933;PMS3003;30667;43.614;1.442;2022-12-07T15:20:39;21.00;20.20;14.00
44933;PMS3003;30667;43.614;1.442;2022-12-07T15:23:05;21.00;20.75;12.75
44933;PMS3003;30667;43.614;1.442;2022-12-07T15:25:31;22.60;19.80;14.00
44933;PMS3003;30667;43.614;1.442;2022-12-07T15:27:56;29.75;24.50;16.00
44933;PMS3003;30667;43.614;1.442;2022-12-07T15:30:22;24.00;21.00;13.00
44933;PMS3003;30667;43.614;1.442;2022-12-07T15:32:50;22.00;20.00;12.75
44933;PMS3003;30667;43.614;1.442;2022-12-07T15:35:17;24.40;23.40;16.80
44933;PMS3003;30667;43.614;1.442;2022-12-07T15:37:42;28.20;26.40;17.40
44933;PMS3003;30667;43.614;1.442;2022-12-07T15:40:08;27.50;27.00;18.50
44933;PMS3003;30667;43.614;1.442;2022-12-07T15:42:37;24.00;21.80;14.00
44933;PMS3003;30667;43.614;1.442;2022-12-07T15:45:03;20.20;19.40;10.80
44933;PMS3003;30667;43.614;1.442;2022-12-07T15:47:39;21.60;21.40;14.80
44933;PMS3003;30667;43.614;1.442;2022-12-07T15:50:07;27.00;24.60;16.00
44933;PMS3003;30667;43.614;1.442;2022-12-07T15:52:35;27.40;26.40;17.40
44933;PMS3003;30667;43.614;1.442;2022-12-07T15:55:01;26.00;24.20;16.40